Westhampton Dunes, New York
Current Conditions -  °F | °C
As of 5:53 PM on Saturday 25 Oct 2014 (Local Time) from KFOK Reporting Station
Clear Clear  
Wind Chill: 59°   Ceiling: Unl
Heat Index: 59°   Visibility: 10mi
Dew Point: 45°   Wind: 7mph
Humidity: 60%   Direction: 220°SW
Pressure: 29.67"   Gusts: NA
Location:  40.8323°N, 72.6497°W
Report Text: KFOK 252153Z AUTO 22006KT 10SM CLR 15/07 A2967 RMK AO2 SLP046 T01500072 TSNO
Loading
Personal Weather Stations






























Interactive Weather Map
Tropical Storm Tracking
New forecast layout! Learn more

10-Day Weather Forecast

Advertisements
Track Severe Weather on mobile